Time;durP1;ratioP1;P1;durP2;ratioP2;P2;SDS_P1;SDS_P2;PMS_P1;PMS_P2;Temp;Humidity;BMP_temperature;BMP_pressure;BME280_temperature;BME280_humidity;BME280_pressure;Samples;Min_cycle;Max_cycle;Signal;HPM_P1;HPM_P2
2024/04/12 00:01:02;;;;;;;;;;;6.30;93.80;;;;;;5452254;26;19999;-86
2024/04/12 00:03:36;;;;;;;1.30;1.20;;;6.20;93.70;;;;;;5450355;26;20015;-86
2024/04/12 00:06:05;;;;;;;1.40;1.30;;;;;;;;;;5450797;26;19999;-86
2024/04/12 00:08:31;;;;;;;1.35;0.85;;;;;;;;;;5450345;26;20569;-86
2024/04/12 00:11:00;;;;;;;2.47;1.60;;;;;;;;;;5450144;26;20003;-86
2024/04/12 00:13:26;;;;;;;0.93;0.85;;;;;;;;;;5450450;26;20048;-86
2024/04/12 00:15:58;;;;;;;3.88;1.20;;;6.40;93.60;;;;;;5451304;26;20003;-86
2024/04/12 00:18:28;;;;;;;1.35;1.02;;;;;;;;;;5450983;26;20071;-85
2024/04/12 00:20:58;;;;;;;1.23;0.95;;;6.30;94.30;;;;;;5450457;26;20515;-86
2024/04/12 00:23:26;;;;;;;1.58;1.33;;;6.50;92.70;;;;;;5450517;26;20457;-86
2024/04/12 00:25:55;;;;;;;1.23;1.17;;;6.40;92.90;;;;;;5450365;26;19999;-87
2024/04/12 00:28:22;;;;;;;1.52;1.30;;;6.20;93.40;;;;;;5449798;26;20006;-86
2024/04/12 00:30:49;;;;;;;6.88;1.50;;;6.20;93.90;;;;;;5450680;26;20087;-86
2024/04/12 00:33:19;;;;;;;0.90;0.90;;;6.10;99.90;;;;;;5450403;26;19999;-86
2024/04/12 00:35:49;;;;;;;1.92;1.25;;;;;;;;;;5450446;26;20013;-86
2024/04/12 00:38:16;;;;;;;5.10;1.65;;;;;;;;;;5449996;26;20558;-86
2024/04/12 00:40:46;;;;;;;1.25;1.15;;;;;;;;;;5450639;26;20459;-86
2024/04/12 00:43:17;;;;;;;2.38;1.52;;;6.10;93.80;;;;;;5448959;26;20604;-86
2024/04/12 00:45:45;;;;;;;1.10;1.00;;;6.20;93.50;;;;;;5450448;26;20014;-85
2024/04/12 00:48:14;;;;;;;0.93;0.88;;;6.10;93.70;;;;;;5449511;26;20002;-85
2024/04/12 00:50:43;;;;;;;2.25;0.98;;;6.10;93.50;;;;;;5451073;26;19999;-86
2024/04/12 00:53:13;;;;;;;4.80;1.20;;;6.00;99.90;;;;;;5452641;26;20422;-85
2024/04/12 00:55:40;;;;;;;1.27;1.00;;;;;;;;;;5452281;26;20014;-86
2024/04/12 00:58:09;;;;;;;4.45;1.13;;;5.90;93.90;;;;;;5451195;26;20007;-87
2024/04/12 01:00:35;;;;;;;1.73;0.90;;;6.00;99.90;;;;;;5450928;26;19999;-86
2024/04/12 01:03:05;;;;;;;1.65;1.30;;;6.10;94.50;;;;;;5449797;26;20003;-86
2024/04/12 01:05:35;;;;;;;1.10;0.90;;;6.00;94.40;;;;;;5450252;26;20058;-85
2024/04/12 01:08:01;;;;;;;0.85;0.85;;;;;;;;;;5450797;26;19999;-85
2024/04/12 01:10:31;;;;;;;1.65;1.00;;;;;;;;;;5449003;26;19994;-85
2024/04/12 01:13:01;;;;;;;1.48;1.05;;;5.80;94.70;;;;;;5450021;26;20122;-86
2024/04/12 01:15:32;;;;;;;0.90;0.90;;;5.70;98.20;;;;;;5450403;26;19999;-86
2024/04/12 01:18:04;;;;;;;1.27;1.00;;;6.40;95.80;;;;;;5450462;26;20003;-86
2024/04/12 01:20:32;;;;;;;1.27;0.82;;;5.80;96.60;;;;;;5427600;26;20026;-86
2024/04/12 01:22:59;;;;;;;1.00;0.90;;;;;;;;;;5449986;26;19999;-86
2024/04/12 01:25:25;;;;;;;0.98;0.88;;;5.90;95.20;;;;;;5450149;26;20320;-86
2024/04/12 01:27:51;;;;;;;1.17;1.08;;;;;;;;;;5450810;26;20377;-86
2024/04/12 01:30:20;;;;;;;1.58;0.77;;;;;;;;;;5449238;26;20234;-86
2024/04/12 01:32:50;;;;;;;1.02;0.93;;;;;;;;;;5449383;26;20017;-86
2024/04/12 01:35:17;;;;;;;1.20;1.10;;;5.70;95.90;;;;;;5449812;26;19998;-85
2024/04/12 01:37:46;;;;;;;1.48;1.02;;;;;;;;;;5450119;26;20103;-86
2024/04/12 01:40:12;;;;;;;1.65;1.02;;;;;;;;;;5449993;26;20009;-86
2024/04/12 01:42:43;;;;;;;1.60;1.00;;;5.60;99.70;;;;;;5448610;26;20005;-86
2024/04/12 01:45:14;;;;;;;2.90;1.17;;;6.10;99.90;;;;;;5449537;26;20362;-85
2024/04/12 01:47:42;;;;;;;1.38;1.10;;;;;;;;;;5447474;26;20010;-86
2024/04/12 01:50:08;;;;;;;1.35;1.10;;;;;;;;;;5448918;26;19998;-86
2024/04/12 01:52:50;;;;;;;8.35;1.35;;;;;;;;;;5448697;26;20011;-86
2024/04/12 01:55:19;;;;;;;1.58;1.10;;;5.70;95.90;;;;;;5449055;26;20125;-85
2024/04/12 01:57:52;;;;;;;1.75;1.27;;;5.80;99.90;;;;;;5448747;26;20338;-85
2024/04/12 02:00:23;;;;;;;1.63;1.10;;;5.80;95.90;;;;;;5448325;26;20006;-86
2024/04/12 02:02:52;;;;;;;1.33;1.23;;;;;;;;;;5448713;26;20524;-86
2024/04/12 02:05:28;;;;;;;7.07;1.65;;;;;;;;;;5448539;26;20323;-86
2024/04/12 02:07:55;;;;;;;1.23;1.17;;;;;;;;;;5450400;26;19994;-86
2024/04/12 02:10:22;;;;;;;1.77;1.10;;;;;;;;;;5448800;26;20010;-86
2024/04/12 02:12:53;;;;;;;1.23;1.13;;;;;;;;;;5449917;26;19999;-87
2024/04/12 02:15:20;;;;;;;1.92;1.10;;;5.90;99.90;;;;;;5447652;26;20011;-86
2024/04/12 02:17:58;;;;;;;1.53;0.80;;;5.90;95.10;;;;;;5447565;26;20434;-86
2024/04/12 02:20:33;;;;;;;1.52;1.42;;;5.60;99.90;;;;;;5449157;26;20804;-86
2024/04/12 02:23:09;;;;;;;2.60;1.35;;;5.70;95.90;;;;;;5450233;26;20003;-86
2024/04/12 02:25:39;;;;;;;15.32;3.33;;;5.80;96.00;;;;;;5450473;26;20101;-86
2024/04/12 02:28:11;;;;;;;3.67;1.33;;;5.90;95.70;;;;;;5427707;26;20014;-87
2024/04/12 02:30:45;;;;;;;1.13;1.10;;;5.70;99.90;;;;;;5448313;26;19999;-86
2024/04/12 02:33:18;;;;;;;5.18;1.73;;;5.50;99.90;;;;;;5447534;26;20005;-86
2024/04/12 02:35:45;;;;;;;4.80;2.08;;;5.60;99.90;;;;;;5449972;26;19991;-86
2024/04/12 02:38:15;;;;;;;1.90;1.38;;;5.60;96.00;;;;;;5449561;26;20015;-86
2024/04/12 02:40:45;;;;;;;9.40;1.50;;;5.40;99.90;;;;;;5449703;26;20013;-86
2024/04/12 02:43:15;;;;;;;1.70;1.25;;;5.50;96.40;;;;;;5448419;26;20393;-86
2024/04/12 02:45:54;;;;;;;1.13;1.02;;;;;;;;;;5449593;26;19999;-86
2024/04/12 02:48:20;;;;;;;1.48;0.98;;;;;;;;;;5455120;26;20346;-86
2024/04/12 02:50:53;;;;;;;1.83;1.55;;;5.50;97.20;;;;;;5447860;26;20003;-87
2024/04/12 02:53:24;;;;;;;1.92;1.33;;;5.60;99.90;;;;;;5449636;26;20013;-87
2024/04/12 02:56:03;;;;;;;1.15;1.00;;;5.80;96.60;;;;;;5449816;26;20104;-86
2024/04/12 02:58:39;;;;;;;1.58;1.17;;;;;;;;;;5425186;26;20007;-86
2024/04/12 03:01:18;;;;;;;2.33;1.02;;;5.80;96.50;;;;;;5445405;26;20056;-86
2024/04/12 03:03:48;;;;;;;1.95;1.30;;;5.80;96.40;;;;;;5448989;26;20013;-89
2024/04/12 03:06:24;;;;;;;1.58;1.13;;;5.70;96.20;;;;;;5448765;26;19995;-87
2024/04/12 03:08:52;;;;;;;1.35;1.25;;;5.70;96.30;;;;;;5447975;26;20018;-86
2024/04/12 03:11:28;;;;;;;5.20;1.25;;;5.70;96.20;;;;;;5448309;26;20014;-86
2024/04/12 03:13:58;;;;;;;3.70;2.05;;;5.60;96.20;;;;;;5449616;26;20044;-86
2024/04/12 03:16:25;;;;;;;1.33;1.08;;;;;;;;;;5449035;26;20009;-86
2024/04/12 03:18:51;;;;;;;1.05;1.02;;;5.40;96.80;;;;;;5448823;26;20006;-86
2024/04/12 03:21:24;;;;;;;1.85;1.13;;;5.30;96.90;;;;;;5446528;26;20010;-86
2024/04/12 03:23:50;;;;;;;3.13;1.38;;;;;;;;;;5447948;26;20014;-86
2024/04/12 03:26:23;;;;;;;4.53;1.83;;;5.20;99.90;;;;;;5449009;26;20031;-86
2024/04/12 03:28:53;;;;;;;1.75;1.52;;;5.20;96.80;;;;;;5448203;26;20005;-86
2024/04/12 03:31:25;;;;;;;11.07;1.27;;;5.20;96.70;;;;;;5448930;26;19999;-86
2024/04/12 03:33:54;;;;;;;1.17;1.10;;;;;;;;;;5448178;26;20525;-86
2024/04/12 03:42:07;;;;;;;6.07;0.98;;;5.20;98.10;;;;;;5446975;26;20496;-86
2024/04/12 03:44:36;;;;;;;1.80;1.05;;;5.10;98.30;;;;;;5449120;26;20380;-85
2024/04/12 03:47:07;;;;;;;5.75;1.42;;;5.10;98.40;;;;;;5447923;26;20003;-86
2024/04/12 03:49:36;;;;;;;1.33;1.10;;;;;;;;;;5448157;26;20039;-86
2024/04/12 03:52:05;;;;;;;1.02;1.00;;;;;;;;;;5448266;26;20003;-86
2024/04/12 03:54:31;;;;;;;1.05;0.88;;;5.10;98.40;;;;;;5448173;26;20010;-86
2024/04/12 03:56:58;;;;;;;2.85;1.52;;;5.10;98.70;;;;;;5451030;26;20049;-86
2024/04/12 03:59:30;;;;;;;1.43;1.00;;;6.10;98.60;;;;;;5452034;26;19990;-86
2024/04/12 04:01:57;;;;;;;2.50;1.13;;;;;;;;;;5431065;26;20613;-86
2024/04/12 04:04:37;;;;;;;2.05;1.08;;;5.30;98.70;;;;;;5451672;26;20406;-86
2024/04/12 04:07:06;;;;;;;1.80;1.13;;;5.40;99.90;;;;;;5451534;26;19998;-87
2024/04/12 04:09:32;;;;;;;1.40;0.90;;;5.30;98.00;;;;;;5452247;26;20267;-86
2024/04/12 04:11:58;;;;;;;0.95;0.95;;;5.70;99.20;;;;;;5451463;26;20051;-86
2024/04/12 04:14:27;;;;;;;5.18;1.38;;;;;;;;;;5451181;26;20499;-86
2024/04/12 04:16:55;;;;;;;2.03;1.05;;;5.10;98.30;;;;;;5450842;26;20484;-86
2024/04/12 04:19:39;;;;;;;0.88;0.88;;;5.00;98.60;;;;;;5450951;26;20019;-86
2024/04/12 04:22:21;;;;;;;0.63;0.63;;;4.80;98.60;;;;;;5450960;26;20084;-87
2024/04/12 04:24:48;;;;;;;0.90;0.88;;;;;;;;;;5431260;26;20356;-86
2024/04/12 04:27:15;;;;;;;4.53;1.25;;;;;;;;;;5443396;26;19994;-86
2024/04/12 04:29:43;;;;;;;;;;;5.00;99.90;;;;;;5452298;26;19999;-86
2024/04/12 04:32:10;;;;;;;1.90;1.75;;;;;;;;;;5451260;26;20496;-86
2024/04/12 04:34:36;;;;;;;1.73;1.30;;;4.80;99.10;;;;;;5450893;26;20037;-86
2024/04/12 04:37:05;;;;;;;1.60;1.20;;;;;;;;;;5450830;26;20334;-86
2024/04/12 04:39:32;;;;;;;0.98;0.98;;;;;;;;;;5449959;26;20332;-86
2024/04/12 04:41:58;;;;;;;;;;;4.70;99.90;;;;;;5452577;26;20014;-86
2024/04/12 04:44:24;;;;;;;4.65;1.63;;;;;;;;;;5462523;26;19925;-87
2024/04/12 04:46:51;;;;;;;1.40;1.30;;;;;;;;;;5450755;26;19998;-86
2024/04/12 04:49:19;;;;;;;4.35;1.13;;;4.50;99.90;;;;;;5451083;26;19991;-87
2024/04/12 04:51:48;;;;;;;2.65;1.33;;;;;;;;;;5451895;26;20010;-86
2024/04/12 04:54:16;;;;;;;1.60;1.15;;;4.40;99.90;;;;;;5449520;26;20072;-86
2024/04/12 04:56:42;;;;;;;8.18;2.15;;;4.60;99.90;;;;;;5449688;26;19998;-86
2024/04/12 04:59:18;;;;;;;0.82;0.82;;;4.60;99.90;;;;;;5451250;26;19999;-86
2024/04/12 05:01:52;;;;;;;3.20;1.42;;;;;;;;;;5428787;26;19999;-86
2024/04/12 05:04:21;;;;;;;1.05;1.05;;;4.70;99.90;;;;;;5450290;26;19998;-86
2024/04/12 05:06:50;;;;;;;1.33;1.02;;;4.90;99.90;;;;;;5449323;26;20006;-86
2024/04/12 05:09:18;;;;;;;7.95;0.88;;;5.00;99.90;;;;;;5448552;26;20023;-85
2024/04/12 05:11:50;;;;;;;2.53;1.55;;;5.00;99.90;;;;;;5447700;26;20011;-86
2024/04/12 05:14:46;;;;;;;2.95;2.05;;;;;;;;;;5446687;26;20462;-86
2024/04/12 05:17:05;;;;;;;3.13;2.00;;;;;;;;;;5443832;26;20332;-86
2024/04/12 05:19:40;;;;;;;1.70;1.00;;;4.90;99.90;;;;;;5439951;26;20224;-85
2024/04/12 05:22:07;;;;;;;2.22;1.45;;;4.90;99.70;;;;;;5444011;26;19995;-85
2024/04/12 05:24:35;;;;;;;1.55;1.25;;;;;;;;;;5444366;26;20002;-86
2024/04/12 05:27:04;;;;;;;1.70;1.00;;;;;;;;;;5447633;26;19999;-86
2024/04/12 05:29:30;;;;;;;4.18;1.92;;;;;;;;;;5443198;26;20003;-86
2024/04/12 05:31:56;;;;;;;1.02;0.95;;;;;;;;;;5441326;26;20014;-85
2024/04/12 05:34:22;;;;;;;1.13;1.02;;;5.10;99.90;;;;;;5445688;26;20545;-86
2024/04/12 05:36:48;;;;;;;1.47;1.37;;;;;;;;;;5445838;26;22181;-85
2024/04/12 05:39:19;;;;;;;3.42;1.27;;;;;;;;;;5447480;26;20017;-85
2024/04/12 05:41:45;;;;;;;3.90;1.58;;;;;;;;;;5446098;26;19995;-85
2024/04/12 05:44:12;;;;;;;2.50;1.98;;;;;;;;;;5442706;26;19999;-86
2024/04/12 05:46:39;;;;;;;1.60;1.38;;;;;;;;;;5463535;26;20044;-90
2024/04/12 05:49:09;;;;;;;3.10;2.28;;;;;;;;;;5449541;26;19995;-83
2024/04/12 05:51:43;;;;;;;2.90;2.22;;;5.30;98.60;;;;;;5446032;26;19995;-83
2024/04/12 05:54:16;;;;;;;1.25;1.15;;;;;;;;;;5447670;26;20007;-86
2024/04/12 05:56:51;;;;;;;1.70;1.60;;;;;;;;;;5445970;26;20070;-90
2024/04/12 05:59:17;;;;;;;2.70;2.00;;;;;;;;;;5447637;26;20632;-84
2024/04/12 06:01:45;;;;;;;7.40;2.05;;;6.10;97.30;;;;;;5446705;26;19994;-84
2024/04/12 06:04:19;;;;;;;6.55;1.45;;;6.10;99.90;;;;;;5444637;26;20002;-88
2024/04/12 06:06:48;;;;;;;1.88;1.58;;;;;;;;;;5450174;26;20598;-88
2024/04/12 06:09:20;;;;;;;1.40;1.30;;;;;;;;;;5451307;26;20014;-88
2024/04/12 06:11:54;;;;;;;1.52;1.25;;;8.00;95.80;;;;;;5444362;26;20010;-88
2024/04/12 06:14:21;;;;;;;4.30;1.60;;;10.70;92.90;;;;;;5436196;26;20013;-88
2024/04/12 06:16:55;;;;;;;3.47;3.30;;;13.70;91.40;;;;;;5443669;26;19995;-89
2024/04/12 06:19:21;;;;;;;3.03;2.92;;;;;;;;;;5445596;26;19999;-88
2024/04/12 06:21:48;;;;;;;5.82;3.22;;;;;;;;;;5445455;26;19995;-89
2024/04/12 06:24:16;;;;;;;3.67;2.97;;;22.50;54.50;;;;;;5446653;26;20538;-88
2024/04/12 06:26:47;;;;;;;2.88;2.38;;;24.70;50.40;;;;;;5448859;26;20474;-89
2024/04/12 06:29:16;;;;;;;3.70;2.70;;;26.40;46.50;;;;;;5446492;26;20003;-89
2024/04/12 06:31:46;;;;;;;4.32;3.58;;;27.60;44.30;;;;;;5446498;26;19998;-89
2024/04/12 06:34:17;;;;;;;3.42;2.90;;;29.00;43.10;;;;;;5432115;26;20009;-88
2024/04/12 06:36:45;;;;;;;11.13;3.40;;;;;;;;;;5445573;26;20015;-88
2024/04/12 06:39:12;;;;;;;11.80;2.90;;;28.90;39.00;;;;;;5446635;26;20455;-89
2024/04/12 06:41:38;;;;;;;7.28;2.38;;;;;;;;;;5447651;26;19998;-89
2024/04/12 06:44:04;;;;;;;12.40;10.52;;;;;;;;;;5427871;26;20110;-89
2024/04/12 06:46:32;;;;;;;5.73;1.97;;;32.90;37.80;;;;;;5446013;26;20014;-90
2024/04/12 06:49:07;;;;;;;2.90;2.05;;;34.00;37.50;;;;;;5444674;26;20487;-89
2024/04/12 06:54:42;;;;;;;4.85;1.80;;;35.40;32.90;;;;;;5362057;26;19996;-90
2024/04/12 06:57:09;;;;;;;3.22;1.80;;;36.00;32.10;;;;;;5350762;26;20500;-90
2024/04/12 06:59:35;;;;;;;4.18;1.75;;;36.20;40.10;;;;;;5353248;26;20008;-89
2024/04/12 07:02:05;;;;;;;2.08;1.60;;;36.90;30.50;;;;;;5367711;26;20011;-90
2024/04/12 07:04:31;;;;;;;2.83;1.73;;;37.50;32.50;;;;;;5363193;26;20008;-90
2024/04/12 07:06:57;;;;;;;2.42;1.75;;;37.90;33.70;;;;;;5367161;26;19996;-89
2024/04/12 07:09:23;;;;;;;1.83;1.70;;;38.70;32.40;;;;;;5362294;26;20033;-90
2024/04/12 07:11:51;;;;;;;3.03;1.55;;;39.60;35.60;;;;;;5366886;26;20008;-89
2024/04/12 07:14:22;;;;;;;4.43;1.70;;;;;;;;;;5363475;26;20126;-89
2024/04/12 07:16:48;;;;;;;2.65;1.80;;;;;;;;;;5366618;26;20011;-89
2024/04/12 07:19:18;;;;;;;4.80;1.80;;;;;;;;;;5361437;26;19996;-90
2024/04/12 07:21:44;;;;;;;4.97;1.65;;;;;;;;;;5365896;26;20441;-90
2024/04/12 07:24:15;;;;;;;;;;;40.60;23.90;;;;;;5337449;26;19992;-89
2024/04/12 07:26:41;;;;;;;5.05;1.42;;;;;;;;;;5336558;26;19953;-89
2024/04/12 07:29:07;;;;;;;;;;;42.30;25.20;;;;;;5343903;26;20009;-90
2024/04/12 07:31:38;;;;;;;4.00;2.25;;;42.90;30.40;;;;;;5449045;26;19931;-91
2024/04/12 07:34:08;;;;;;;7.00;3.97;;;42.90;28.90;;;;;;5448009;26;20007;-91
2024/04/12 07:36:34;;;;;;;8.90;3.60;;;43.90;24.40;;;;;;5449416;26;19995;-91
2024/04/12 07:39:02;;;;;;;5.53;2.70;;;44.30;24.00;;;;;;5448290;26;19995;-91
2024/04/12 07:41:32;;;;;;;4.32;1.83;;;44.90;23.60;;;;;;5447810;26;20442;-90
2024/04/12 07:43:58;;;;;;;3.03;1.52;;;45.40;25.40;;;;;;5449143;26;20047;-90
2024/04/12 07:46:27;;;;;;;1.98;1.42;;;45.30;28.20;;;;;;5448254;26;20015;-90
2024/04/12 07:48:57;;;;;;;2.38;1.20;;;45.10;22.90;;;;;;5425748;26;20003;-91
2024/04/12 07:51:31;;;;;;;2.22;1.13;;;45.00;28.00;;;;;;5449075;26;20010;-90
2024/04/12 07:54:03;;;;;;;2.08;1.33;;;;;;;;;;5449449;26;20014;-89
2024/04/12 07:56:29;;;;;;;3.47;1.17;;;;;;;;;;5448951;26;19999;-90
2024/04/12 07:59:13;;;;;;;;;;;45.50;22.30;;;;;;5449464;26;20018;-91
2024/04/12 08:01:45;;;;;;;1.23;0.87;;;46.20;27.40;;;;;;5448258;26;19997;-91
2024/04/12 08:04:57;;;;;;;4.82;1.38;;;46.40;27.00;;;;;;5449290;26;20727;-90
2024/04/12 08:07:13;;;;;;;6.63;1.30;;;;;;;;;;5443615;26;20020;-90
2024/04/12 08:09:44;;;;;;;1.30;0.90;;;46.90;26.50;;;;;;5447390;26;20007;-91
2024/04/12 08:12:31;;;;;;;2.83;1.02;;;47.10;26.60;;;;;;5448654;26;20002;-90
2024/04/12 08:15:06;;;;;;;1.88;0.93;;;;;;;;;;5428570;26;20017;-90
2024/04/12 08:17:39;;;;;;;1.73;1.30;;;;;;;;;;5444924;26;20337;-91
2024/04/12 08:20:16;;;;;;;5.15;1.33;;;48.70;21.20;;;;;;5448429;26;20033;-91
2024/04/12 08:22:46;;;;;;;3.65;1.10;;;;;;;;;;5447878;26;19998;-90
2024/04/12 08:25:17;;;;;;;3.58;1.10;;;;;;;;;;5447978;26;20037;-90
2024/04/12 08:27:43;;;;;;;3.42;1.40;;;;;;;;;;5448373;26;20053;-90
2024/04/12 08:30:19;;;;;;;2.03;0.80;;;;;;;;;;5447583;26;20010;-92
2024/04/12 08:32:48;;;;;;;;;;;49.40;21.00;;;;;;5427941;26;19999;-90
2024/04/12 08:35:19;;;;;;;3.35;1.35;;;;;;;;;;5448403;26;19924;-91
2024/04/12 08:37:45;;;;;;;2.92;1.02;;;;;;;;;;5428166;26;20589;-90
2024/04/12 08:40:11;;;;;;;2.20;1.02;;;;;;;;;;5447047;26;20018;-91
2024/04/12 08:42:39;;;;;;;2.15;0.80;;;50.10;20.60;;;;;;5461483;26;19991;-91
2024/04/12 08:45:14;;;;;;;1.52;0.98;;;49.90;21.00;;;;;;5447146;26;20013;-90
2024/04/12 08:48:02;;;;;;;;;;;50.20;20.90;;;;;;5447955;26;20013;-90
2024/04/12 08:50:31;;;;;;;3.78;1.40;;;51.60;25.60;;;;;;5427576;26;20370;-90
2024/04/12 08:52:58;;;;;;;1.20;1.02;;;;;;;;;;5447501;26;20585;-90
2024/04/12 08:55:24;;;;;;;4.78;1.55;;;;;;;;;;5448220;26;19999;-90
2024/04/12 08:58:00;;;;;;;2.33;1.10;;;50.90;22.30;;;;;;5447305;26;20010;-90
2024/04/12 09:00:34;;;;;;;1.58;0.75;;;50.40;20.10;;;;;;5447515;26;20450;-89
2024/04/12 09:03:04;;;;;;;1.65;0.95;;;50.70;20.10;;;;;;5446277;26;19999;-90
2024/04/12 09:05:38;;;;;;;2.33;0.90;;;50.50;19.90;;;;;;5435326;26;19999;-91
2024/04/12 09:08:05;;;;;;;1.48;1.00;;;50.40;19.90;;;;;;5446413;26;20447;-90
2024/04/12 09:10:35;;;;;;;4.72;0.98;;;50.20;20.00;;;;;;5446980;26;20466;-90
2024/04/12 09:13:08;;;;;;;1.17;0.65;;;50.20;19.90;;;;;;5441681;26;20009;-88
2024/04/12 09:15:43;;;;;;;2.97;0.98;;;50.90;20.10;;;;;;5431563;26;20007;-88
2024/04/12 09:18:19;;;;;;;3.47;0.75;;;51.30;25.40;;;;;;5446214;26;20011;-69
2024/04/12 09:20:52;;;;;;;2.25;0.93;;;51.90;24.50;;;;;;5441689;26;20009;-69
2024/04/12 09:23:20;;;;;;;1.83;0.50;;;51.70;21.20;;;;;;5446798;26;19995;-69
2024/04/12 09:25:58;;;;;;;1.15;0.60;;;51.20;19.60;;;;;;5445509;26;20675;-68
2024/04/12 09:28:37;;;;;;;1.27;0.82;;;51.70;19.80;;;;;;5438898;26;19999;-72
2024/04/12 09:33:56;;;;;;;1.92;0.90;;;51.80;23.70;;;;;;5443771;26;20743;-72
2024/04/12 09:36:55;;;;;;;2.03;1.15;;;52.60;19.80;;;;;;5446802;26;19995;-72
2024/04/12 09:39:23;;;;;;;2.22;0.82;;;52.90;19.80;;;;;;5446268;26;20010;-72
2024/04/12 09:42:03;;;;;;;3.47;1.30;;;53.50;24.90;;;;;;5446093;26;19995;-72
2024/04/12 09:44:41;;;;;;;4.22;0.68;;;54.20;24.90;;;;;;5434540;26;20459;-71
2024/04/12 10:37:47;;;;;;;3.35;0.52;;;51.10;19.30;;;;;;5443785;26;20055;-72
2024/04/12 10:40:13;;;;;;;2.35;0.70;;;50.10;20.50;;;;;;5437492;26;20083;-72
2024/04/12 10:42:39;;;;;;;2.33;0.60;;;49.60;24.90;;;;;;5442984;26;20435;-72
2024/04/12 10:45:08;;;;;;;1.10;0.38;;;49.70;24.80;;;;;;5442259;26;20018;-72
2024/04/12 10:47:40;;;;;;;1.83;0.40;;;49.90;19.40;;;;;;5443911;26;20002;-72
2024/04/12 10:50:07;;;;;;;2.00;0.57;;;50.00;19.20;;;;;;5439471;26;20425;-72
2024/04/12 10:52:33;;;;;;;3.70;0.50;;;;;;;;;;5446001;26;20031;-72
2024/04/12 10:55:01;;;;;;;3.13;0.73;;;51.30;21.50;;;;;;5444898;26;20017;-72
2024/04/12 10:57:30;;;;;;;1.52;0.63;;;51.70;19.50;;;;;;5445225;26;20079;-72
2024/04/12 11:00:01;;;;;;;1.70;0.80;;;52.20;21.00;;;;;;5443776;26;20013;-72
2024/04/12 11:02:27;;;;;;;4.57;0.70;;;52.10;19.60;;;;;;5445482;26;20006;-72
2024/04/12 11:05:24;;;;;;;3.13;0.90;;;51.70;19.30;;;;;;5448761;26;20457;-72
2024/04/12 11:07:52;;;;;;;7.13;0.50;;;50.10;25.10;;;;;;5448993;26;19998;-72
2024/04/12 11:10:24;;;;;;;3.05;0.65;;;50.90;20.00;;;;;;5448145;26;20002;-72
2024/04/12 11:12:59;;;;;;;1.25;0.80;;;50.80;25.30;;;;;;5447884;26;20034;-72
2024/04/12 11:32:05;;;;;;;1.77;0.60;;;50.20;20.70;;;;;;5439561;26;20449;-72
2024/04/12 11:34:32;;;;;;;5.32;1.33;;;;;;;;;;5448274;26;20006;-72
2024/04/12 11:37:05;;;;;;;3.90;0.40;;;49.30;19.80;;;;;;5448503;26;20038;-72
2024/04/12 11:39:35;;;;;;;5.15;0.60;;;48.60;19.90;;;;;;5445377;26;20048;-71
2024/04/12 11:42:11;;;;;;;1.58;0.40;;;48.50;21.00;;;;;;5448209;26;20339;-71
2024/04/12 11:44:36;;;;;;;;;;;47.10;20.10;;;;;;5440705;26;21071;-71
2024/04/12 11:47:03;;;;;;;1.05;0.55;;;46.50;20.30;;;;;;5446368;26;19967;-71
2024/04/12 11:49:41;;;;;;;1.42;0.68;;;45.20;26.10;;;;;;5445015;26;20005;-71
2024/04/12 11:52:15;;;;;;;2.03;0.70;;;;;;;;;;5447153;26;19995;-71
2024/04/12 11:54:42;;;;;;;5.18;0.40;;;43.20;22.60;;;;;;5447264;26;20550;-71
2024/04/12 11:57:11;;;;;;;0.40;0.40;;;;;;;;;;5446827;26;20007;-71
2024/04/12 11:59:37;;;;;;;2.25;0.43;;;39.70;30.20;;;;;;5447177;26;20002;-71
2024/04/12 12:02:05;;;;;;;2.57;0.73;;;39.00;31.20;;;;;;5446605;26;19999;-71
2024/04/12 12:04:32;;;;;;;2.40;0.73;;;37.70;22.80;;;;;;5445576;26;20306;-71
2024/04/12 12:06:59;;;;;;;5.03;0.60;;;36.20;27.10;;;;;;5446698;26;20044;-68
2024/04/12 12:09:31;;;;;;;5.22;0.85;;;34.40;34.90;;;;;;5447024;26;19994;-67
2024/04/12 12:11:57;;;;;;;0.60;0.60;;;;;;;;;;5448116;26;19994;-68
2024/04/12 12:14:25;;;;;;;2.42;0.65;;;;;;;;;;5446789;26;20086;-69
2024/04/12 12:16:51;;;;;;;2.25;0.70;;;33.20;36.60;;;;;;5445455;26;20459;-69
2024/04/12 12:19:18;;;;;;;2.47;0.50;;;;;;;;;;5444581;26;20062;-68
2024/04/12 12:21:45;;;;;;;5.38;0.95;;;;;;;;;;5447636;26;20013;-68
2024/04/12 12:24:11;;;;;;;4.97;1.13;;;31.00;39.10;;;;;;5444149;26;20018;-67
2024/04/12 12:26:39;;;;;;;2.10;0.85;;;;;;;;;;5448051;26;19994;-68
2024/04/12 12:29:06;;;;;;;2.90;0.60;;;30.20;41.20;;;;;;5446557;26;19998;-68
2024/04/12 12:31:32;;;;;;;6.68;1.00;;;;;;;;;;5447891;26;20405;-68
2024/04/12 12:33:58;;;;;;;3.65;0.93;;;29.40;41.60;;;;;;5447578;26;19994;-67
2024/04/12 12:36:25;;;;;;;6.90;0.90;;;;;;;;;;5445416;26;20006;-68
2024/04/12 12:38:52;;;;;;;1.13;0.85;;;;;;;;;;5444155;26;20730;-68
2024/04/12 12:41:18;;;;;;;3.28;1.10;;;;;;;;;;5446662;26;19999;-71
2024/04/12 12:43:44;;;;;;;0.80;0.80;;;;;;;;;;5439142;26;19999;-71
2024/04/12 12:46:16;;;;;;;5.22;1.05;;;27.80;29.40;;;;;;5447702;26;20013;-71
2024/04/12 12:48:42;;;;;;;3.60;1.08;;;;;;;;;;5447105;26;20011;-70
2024/04/12 12:51:09;;;;;;;4.57;1.20;;;27.50;45.80;;;;;;5446410;26;19999;-71
2024/04/12 12:53:36;;;;;;;1.88;0.93;;;27.40;30.70;;;;;;5447754;26;20092;-71
2024/04/12 12:56:02;;;;;;;1.02;0.98;;;;;;;;;;5447936;26;19998;-71
2024/04/12 12:58:29;;;;;;;3.22;1.35;;;;;;;;;;5446265;26;20040;-70
2024/04/12 13:01:00;;;;;;;2.22;1.05;;;;;;;;;;5445456;26;20021;-71
2024/04/12 13:03:30;;;;;;;4.13;1.10;;;26.50;31.80;;;;;;5448197;26;20319;-68
2024/04/12 13:05:56;;;;;;;1.25;0.70;;;;;;;;;;5444865;26;19999;-68
2024/04/12 13:08:25;;;;;;;4.38;1.08;;;;;;;;;;5445472;26;20009;-68
2024/04/12 13:10:56;;;;;;;4.40;1.27;;;26.40;32.80;;;;;;5446940;26;20347;-71
2024/04/12 13:13:23;;;;;;;3.20;1.23;;;26.30;32.90;;;;;;5447004;26;20454;-71
2024/04/12 13:15:55;;;;;;;6.07;1.13;;;26.30;48.60;;;;;;5443917;26;20026;-68
2024/04/12 13:18:27;;;;;;;2.90;1.20;;;26.30;33.40;;;;;;5444653;26;20236;-67
2024/04/12 13:20:55;;;;;;;4.25;1.08;;;26.50;33.70;;;;;;5443792;26;20018;-68
2024/04/12 13:23:25;;;;;;;2.42;1.40;;;;;;;;;;5447373;26;19994;-68
2024/04/12 13:25:52;;;;;;;4.82;1.23;;;26.30;38.40;;;;;;5445883;26;20010;-68
2024/04/12 13:28:18;;;;;;;5.68;1.25;;;26.30;49.20;;;;;;5443456;26;20010;-68
2024/04/12 13:30:44;;;;;;;4.18;1.20;;;;;;;;;;5445186;26;19999;-68
2024/04/12 13:33:14;;;;;;;2.83;0.98;;;;;;;;;;5446002;26;20007;-70
2024/04/12 13:35:41;;;;;;;1.52;0.88;;;26.20;49.60;;;;;;5446075;26;20003;-69
2024/04/12 13:38:13;;;;;;;2.60;0.93;;;26.20;36.90;;;;;;5446250;26;20003;-69
2024/04/12 13:40:45;;;;;;;3.53;1.10;;;;;;;;;;5446851;26;19999;-69
2024/04/12 13:43:13;;;;;;;1.42;0.93;;;;;;;;;;5446287;26;20262;-69
2024/04/12 13:51:20;;;;;;;5.20;1.50;;;25.10;36.10;;;;;;5445600;26;20010;-70
2024/04/12 13:53:50;;;;;;;2.30;1.70;;;25.10;36.20;;;;;;5446748;26;20060;-70
2024/04/12 13:56:20;;;;;;;4.32;1.10;;;25.00;47.80;;;;;;5445611;26;20031;-71
2024/04/12 13:58:52;;;;;;;5.10;0.70;;;25.00;36.40;;;;;;5446943;26;20359;-69
2024/04/12 14:01:24;;;;;;;3.30;1.17;;;24.90;36.50;;;;;;5439398;26;20401;-70
2024/04/12 14:03:54;;;;;;;4.35;1.50;;;24.60;36.60;;;;;;5445948;26;20351;-70
2024/04/12 14:06:23;;;;;;;7.45;1.60;;;24.60;36.80;;;;;;5445879;26;19995;-70
2024/04/12 14:08:54;;;;;;;4.65;1.40;;;24.30;36.70;;;;;;5446758;26;20013;-69
2024/04/12 14:11:23;;;;;;;1.30;1.00;;;24.30;52.60;;;;;;5445243;26;20072;-68
2024/04/12 14:13:49;;;;;;;1.45;1.00;;;24.20;52.60;;;;;;5445920;26;19999;-67
2024/04/12 14:16:16;;;;;;;1.92;1.00;;;24.60;50.90;;;;;;5444564;26;20007;-68
2024/04/12 14:18:43;;;;;;;2.67;0.90;;;;;;;;;;5445131;26;20014;-68
2024/04/12 14:21:10;;;;;;;5.75;1.02;;;;;;;;;;5443961;26;20010;-68
2024/04/12 14:23:36;;;;;;;1.20;1.10;;;24.70;47.50;;;;;;5439282;26;20006;-68
2024/04/12 14:26:04;;;;;;;2.05;1.40;;;24.50;40.60;;;;;;5440065;26;20624;-74
2024/04/12 14:28:30;;;;;;;3.25;1.00;;;;;;;;;;5432128;26;19998;-74
2024/04/12 14:30:56;;;;;;;1.35;0.90;;;24.20;53.60;;;;;;5442257;26;19990;-74
2024/04/12 14:33:22;;;;;;;3.25;0.98;;;24.20;44.40;;;;;;5443524;26;20003;-74
2024/04/12 14:35:48;;;;;;;2.33;1.00;;;24.20;38.20;;;;;;5443502;26;20007;-74
2024/04/12 14:38:15;;;;;;;5.22;1.20;;;;;;;;;;5444146;26;19995;-74
2024/04/12 14:40:51;;;;;;;5.85;1.33;;;24.50;38.20;;;;;;5443406;26;19999;-73
2024/04/12 14:43:18;;;;;;;5.05;0.95;;;24.70;38.20;;;;;;5430344;26;20003;-74
2024/04/12 14:45:47;;;;;;;1.10;0.63;;;24.80;41.90;;;;;;5446135;26;19999;-72
2024/04/12 14:48:13;;;;;;;1.15;0.70;;;;;;;;;;5444689;26;20405;-74
2024/04/12 14:50:49;;;;;;;2.20;1.10;;;;;;;;;;5445843;26;20003;-89
2024/04/12 14:53:15;;;;;;;2.20;1.02;;;23.80;38.20;;;;;;5447281;26;20467;-81
2024/04/12 14:55:41;;;;;;;2.17;0.85;;;;;;;;;;5444269;26;20002;-79
2024/04/12 14:58:07;;;;;;;1.92;1.00;;;;;;;;;;5443715;26;19995;-80
2024/04/12 15:00:33;;;;;;;5.00;1.23;;;;;;;;;;5445071;26;19991;-80
2024/04/12 15:49:34;;;;;;;32.20;2.08;;;;;;;;;;5444944;26;20467;-81
2024/04/12 15:52:10;;;;;;;3.67;1.15;;;21.70;42.90;;;;;;5449224;26;20043;-80
2024/04/12 15:54:45;;;;;;;1.65;1.35;;;21.60;49.30;;;;;;5447464;26;20003;-79